Time;durP1;ratioP1;P1;durP2;ratioP2;P2;SDS_P1;SDS_P2;PMS_P1;PMS_P2;Temp;Humidity;BMP_temperature;BMP_pressure;BME280_temperature;BME280_humidity;BME280_pressure;Samples;Min_cycle;Max_cycle;Signal;HPM_P1;HPM_P2
2022/09/13 00:01:58;;;;;;;16.15;7.82;;;;;;;;;;4971673;28;19933;-73
2022/09/13 00:04:24;;;;;;;;;;;;;;;;;;4970807;28;20133;-73
2022/09/13 00:06:50;;;;;;;19.05;8.18;;;;;;;;;;4970110;28;20104;-72
2022/09/13 00:09:16;;;;;;;;;;;;;;;;;;4971184;28;20062;-70
2022/09/13 00:11:42;;;;;;;15.37;7.83;;;;;;;;;;4969791;28;20280;-72
2022/09/13 00:14:09;;;;;;;16.70;8.68;;;;;;;;;;4976626;28;20129;-73
2022/09/13 00:16:36;;;;;;;13.77;7.75;;;;;;;;;;4985637;28;20050;-73
2022/09/13 00:19:02;;;;;;;16.85;8.18;;;;;;;;;;4970859;28;20114;-73
2022/09/13 00:21:28;;;;;;;;;;;;;;;;;;4977573;28;20048;-73
2022/09/13 00:23:54;;;;;;;20.40;8.75;;;;;;;;;;4990950;28;20361;-73
2022/09/13 00:26:25;;;;;;;16.27;7.90;;;;;;;;;;4989769;28;20129;-72
2022/09/13 00:28:52;;;;;;;15.55;8.23;;;;;;;;;;4979292;28;20050;-72
2022/09/13 00:31:19;;;;;;;14.60;7.47;;;;;;;;;;4990754;28;20047;-72
2022/09/13 00:33:45;;;;;;;15.73;7.32;;;;;;;;;;4987828;28;20072;-72
2022/09/13 00:36:11;;;;;;;;;;;;;;;;;;4990054;28;20054;-72
2022/09/13 00:38:37;;;;;;;12.40;6.60;;;;;;;;;;4990110;28;20290;-72
2022/09/13 00:41:04;;;;;;;13.52;6.90;;;;;;;;;;4989559;28;20058;-72
2022/09/13 00:43:49;;;;;;;17.02;7.30;;;;;;;;;;4994078;28;20104;-72
2022/09/13 00:46:27;;;;;;;14.60;7.15;;;;;;;;;;4984075;28;20086;-72
2022/09/13 00:48:56;;;;;;;14.13;7.32;;;;;;;;;;4975469;28;20142;-72
2022/09/13 00:51:22;;;;;;;15.07;7.32;;;;;;;;;;4972791;28;20082;-72
2022/09/13 00:53:48;;;;;;;;;;;;;;;;;;4974264;28;20558;-72
2022/09/13 00:56:20;;;;;;;13.88;7.10;;;;;;;;;;4974852;28;19922;-72
2022/09/13 00:58:57;;;;;;;15.70;7.15;;;;;;;;;;4988858;28;20063;-72
2022/09/13 01:01:25;;;;;;;12.68;6.97;;;;;;;;;;4992987;28;20065;-72
2022/09/13 01:03:51;;;;;;;15.45;7.22;;;;;;;;;;4994195;28;20108;-72
2022/09/13 01:06:17;;;;;;;;;;;;;;;;;;4993252;28;20064;-72
2022/09/13 01:08:45;;;;;;;16.48;7.47;;;;;;;;;;4993465;28;19926;-72
2022/09/13 01:11:15;;;;;;;14.57;7.53;;;;;;;;;;4993925;28;20054;-72
2022/09/13 01:13:42;;;;;;;13.18;7.38;;;;;;;;;;4993756;28;20570;-72
2022/09/13 01:16:08;;;;;;;13.30;7.10;;;;;;;;;;4990292;28;20058;-72
2022/09/13 01:18:34;;;;;;;;;;;;;;;;;;4991197;28;20046;-73
2022/09/13 01:21:19;;;;;;;12.52;6.40;;;;;;;;;;4992681;28;19999;-72
2022/09/13 01:24:05;;;;;;;13.15;7.25;;;;;;;;;;4993321;28;20048;-72
2022/09/13 01:26:34;;;;;;;15.10;6.78;;;;;;;;;;4992143;28;20105;-72
2022/09/13 01:29:19;;;;;;;15.48;7.03;;;;;;;;;;4993934;28;20046;-72
2022/09/13 01:32:14;;;;;;;16.02;7.85;;;;;;;;;;4993225;28;20042;-72
2022/09/13 01:34:52;;;;;;;15.43;7.38;;;;;;;;;;4980320;28;20049;-72
2022/09/13 01:37:27;;;;;;;12.05;6.78;;;;;;;;;;4991821;28;20600;-72
2022/09/13 01:39:54;;;;;;;12.55;6.68;;;;;;;;;;4987835;28;20500;-72
2022/09/13 01:42:26;;;;;;;13.18;7.03;;;;;;;;;;4980414;28;20712;-72
2022/09/13 01:45:01;;;;;;;14.45;7.38;;;;;;;;;;4993054;28;20054;-72
2022/09/13 01:47:39;;;;;;;15.25;7.90;;;;;;;;;;4992073;28;20442;-72
2022/09/13 01:50:06;;;;;;;15.10;7.40;;;;;;;;;;4993154;28;20054;-72
2022/09/13 01:52:44;;;;;;;16.05;6.93;;;;;;;;;;4978289;28;20047;-73
2022/09/13 01:55:23;;;;;;;11.60;6.30;;;;;;;;;;4973195;28;20058;-72
2022/09/13 01:57:52;;;;;;;12.98;6.57;;;;;;;;;;4973660;28;20097;-72
2022/09/13 02:00:19;;;;;;;13.15;7.28;;;;;;;;;;4975957;28;20046;-72
2022/09/13 02:02:53;;;;;;;14.98;7.70;;;;;;;;;;4992518;28;20094;-72
2022/09/13 02:05:19;;;;;;;12.88;7.72;;;;;;;;;;4992640;28;20046;-72
2022/09/13 02:08:05;;;;;;;14.15;7.20;;;;;;;;;;4983709;28;20054;-72
2022/09/13 02:10:33;;;;;;;16.60;7.60;;;;;;;;;;4986044;28;20076;-73
2022/09/13 02:13:01;;;;;;;19.05;7.90;;;;;;;;;;4990804;28;20065;-72
2022/09/13 02:15:31;;;;;;;15.77;7.53;;;;;;;;;;4973625;28;20137;-72
2022/09/13 02:18:12;;;;;;;16.13;8.00;;;;;;;;;;4975680;28;20047;-72
2022/09/13 02:20:40;;;;;;;15.63;7.47;;;;;;;;;;4992357;28;20057;-73
2022/09/13 02:23:09;;;;;;;14.32;7.72;;;;;;;;;;4991293;28;20434;-72
2022/09/13 02:25:36;;;;;;;14.75;8.00;;;;;;;;;;4991250;28;20539;-73
2022/09/13 02:28:05;;;;;;;14.57;8.00;;;;;;;;;;4992909;28;20573;-72
2022/09/13 02:30:33;;;;;;;17.38;8.93;;;;;;;;;;4984101;28;20061;-72
2022/09/13 02:33:07;;;;;;;17.35;8.98;;;;;;;;;;4980986;28;20042;-72
2022/09/13 02:35:38;;;;;;;16.48;8.60;;;;;;;;;;4984036;28;20069;-73
2022/09/13 02:38:06;;;;;;;15.00;8.45;;;;;;;;;;4979141;28;20046;-72
2022/09/13 02:40:39;;;;;;;18.52;8.52;;;;;;;;;;4981902;28;20162;-73
2022/09/13 02:43:10;;;;;;;15.35;8.27;;;;;;;;;;4989506;28;20077;-72
2022/09/13 02:45:42;;;;;;;17.52;8.68;;;;;;;;;;4991110;28;20132;-73
2022/09/13 02:48:10;;;;;;;17.45;10.07;;;;;;;;;;4975883;28;20038;-72
2022/09/13 02:50:43;;;;;;;17.00;8.80;;;;;;;;;;4972358;28;20055;-74
2022/09/13 02:53:26;;;;;;;15.82;8.20;;;;;;;;;;4979894;28;20078;-72
2022/09/13 02:56:11;;;;;;;16.02;8.95;;;;;;;;;;4991738;28;20050;-72
2022/09/13 02:58:37;;;;;;;16.58;8.65;;;;;;;;;;4991928;28;20407;-73
2022/09/13 03:01:04;;;;;;;19.35;9.10;;;;;;;;;;4974793;28;20484;-72
2022/09/13 03:03:30;;;;;;;17.20;9.98;;;;;;;;;;4992223;28;20042;-72
2022/09/13 03:05:56;;;;;;;;;;;;;;;;;;4990688;28;20057;-73
2022/09/13 03:08:23;;;;;;;19.25;9.35;;;;;;;;;;4985646;28;19922;-72
2022/09/13 03:11:04;;;;;;;18.25;9.35;;;;;;;;;;4991335;28;20128;-72
2022/09/13 03:13:49;;;;;;;21.17;10.20;;;;;;;;;;4973460;28;20073;-72
2022/09/13 03:16:18;;;;;;;18.33;10.45;;;;;;;;;;4972476;28;20120;-72
2022/09/13 03:18:53;;;;;;;20.15;10.55;;;;;;;;;;4972031;28;20074;-72
2022/09/13 03:21:22;;;;;;;19.02;9.35;;;;;;;;;;4971106;28;20054;-73
2022/09/13 03:23:58;;;;;;;21.42;10.50;;;;;;;;;;4972312;28;20057;-72
2022/09/13 03:26:47;;;;;;;19.33;10.10;;;;;;;;;;4991636;28;20132;-72
2022/09/13 03:29:23;;;;;;;21.38;10.82;;;;;;;;;;4979905;28;20058;-72
2022/09/13 03:31:55;;;;;;;21.58;11.23;;;;;;;;;;4991041;28;20047;-72
2022/09/13 03:34:33;;;;;;;23.00;11.32;;;;;;;;;;4978283;28;20094;-72
2022/09/13 03:37:05;;;;;;;24.65;10.52;;;;;;;;;;4989335;28;20769;-72
2022/09/13 03:39:47;;;;;;;22.70;11.35;;;;;;;;;;4990233;28;20542;-73
2022/09/13 03:42:23;;;;;;;22.75;10.98;;;;;;;;;;4991643;28;20103;-72
2022/09/13 03:44:50;;;;;;;20.45;11.07;;;;;;;;;;4972095;28;20050;-72
2022/09/13 03:47:17;;;;;;;21.85;11.10;;;;;;;;;;4971718;28;20047;-72
2022/09/13 03:49:44;;;;;;;31.10;12.60;;;;;;;;;;4971634;28;20050;-73
2022/09/13 03:52:11;;;;;;;24.48;12.38;;;;;;;;;;4979997;28;20498;-73
2022/09/13 03:54:38;;;;;;;22.85;12.35;;;;;;;;;;4981796;28;20657;-72
2022/09/13 03:57:10;;;;;;;25.08;11.40;;;;;;;;;;4974442;28;20392;-72
2022/09/13 03:59:37;;;;;;;22.05;10.95;;;;;;;;;;4980512;28;20093;-72
2022/09/13 04:02:04;;;;;;;24.58;12.63;;;;;;;;;;4971223;28;20121;-72
2022/09/13 04:04:30;;;;;;;24.45;11.43;;;;;;;;;;4970758;28;20587;-72
2022/09/13 04:06:56;;;;;;;25.15;12.18;;;;;;;;;;4969521;28;20051;-72
2022/09/13 04:09:23;;;;;;;21.42;11.20;;;;;;;;;;4971803;28;20109;-72
2022/09/13 04:11:49;;;;;;;;;;;;;;;;;;4971652;28;20491;-72
2022/09/13 04:14:15;;;;;;;23.50;11.32;;;;;;;;;;4972975;28;19985;-72
2022/09/13 04:16:41;;;;;;;20.30;11.23;;;;;;;;;;4991634;28;20121;-72
2022/09/13 04:19:07;;;;;;;21.98;10.95;;;;;;;;;;4993593;28;20053;-73
2022/09/13 04:21:33;;;;;;;20.45;11.43;;;;;;;;;;4993364;28;20069;-72
2022/09/13 04:23:59;;;;;;;;;;;;;;;;;;4995176;28;20050;-73
2022/09/13 04:26:25;;;;;;;22.92;11.23;;;;;;;;;;4977517;28;20311;-73
2022/09/13 04:28:51;;;;;;;;;;;;;;;;;;4975650;28;20047;-72
2022/09/13 04:31:17;;;;;;;23.15;10.68;;;;;;;;;;4975423;28;19968;-72
2022/09/13 04:33:43;;;;;;;;;;;;;;;;;;4975784;28;20054;-72
2022/09/13 04:36:09;;;;;;;21.10;11.18;;;;;;;;;;4984172;28;20644;-72
2022/09/13 04:38:36;;;;;;;;;;;;;;;;;;4981335;28;20577;-72
2022/09/13 04:41:02;;;;;;;22.88;11.90;;;;;;;;;;4989596;28;19922;-72
2022/09/13 04:43:28;;;;;;;23.88;11.85;;;;;;;;;;4974416;28;20388;-72
2022/09/13 04:45:55;;;;;;;;;;;;;;;;;;4982251;28;20109;-73
2022/09/13 04:48:21;;;;;;;23.15;11.73;;;;;;;;;;4994792;28;19972;-72
2022/09/13 04:50:47;;;;;;;23.58;11.73;;;;;;;;;;4993269;28;20089;-73
2022/09/13 04:53:13;;;;;;;24.58;11.57;;;;;;;;;;4992994;28;20046;-73
2022/09/13 04:55:39;;;;;;;24.00;12.45;;;;;;;;;;4994106;28;20522;-72
2022/09/13 04:58:05;;;;;;;;;;;;;;;;;;4994596;28;20049;-72
2022/09/13 05:00:32;;;;;;;22.70;11.50;;;;;;;;;;4984689;28;19922;-73
2022/09/13 05:02:59;;;;;;;25.50;12.90;;;;;;;;;;4973639;28;20054;-72
2022/09/13 05:05:25;;;;;;;25.95;12.45;;;;;;;;;;4974312;28;20062;-73
2022/09/13 05:07:50;;;;;;;;;;;;;;;;;;4972765;28;20038;-73
2022/09/13 05:10:17;;;;;;;23.63;12.18;;;;;;;;;;4983414;28;19929;-72
2022/09/13 05:12:43;;;;;;;24.27;11.82;;;;;;;;;;4974778;28;20101;-72
2022/09/13 05:15:11;;;;;;;;;;;;;;;;;;4974872;28;20042;-72
2022/09/13 05:17:37;;;;;;;24.45;12.15;;;;;;;;;;4974344;28;20303;-72
2022/09/13 05:20:04;;;;;;;25.20;13.05;;;;;;;;;;4973031;28;20055;-73
2022/09/13 05:22:30;;;;;;;25.20;12.68;;;;;;;;;;4975782;28;20050;-72
2022/09/13 05:24:56;;;;;;;;;;;;;;;;;;4993268;28;20061;-72
2022/09/13 05:27:22;;;;;;;30.42;13.00;;;;;;;;;;4994058;28;19925;-72
2022/09/13 05:29:48;;;;;;;;;;;;;;;;;;4993564;28;20434;-72
2022/09/13 05:32:14;;;;;;;22.92;12.45;;;;;;;;;;4993313;28;19925;-72
2022/09/13 05:34:40;;;;;;;;;;;;;;;;;;4988236;28;20060;-72
2022/09/13 05:37:06;;;;;;;25.50;12.23;;;;;;;;;;4972239;28;19926;-72
2022/09/13 05:39:32;;;;;;;;;;;;;;;;;;4974285;28;20046;-72
2022/09/13 05:41:58;;;;;;;26.33;13.82;;;;;;;;;;4973896;28;19937;-72
2022/09/13 05:44:24;;;;;;;;;;;;;;;;;;4975381;28;20399;-73
2022/09/13 05:46:50;;;;;;;24.80;12.85;;;;;;;;;;4991699;28;20021;-72
2022/09/13 05:49:16;;;;;;;;;;;;;;;;;;4993828;28;20121;-72
2022/09/13 05:51:42;;;;;;;28.08;13.25;;;;;;;;;;4989852;28;20374;-72
2022/09/13 05:54:08;;;;;;;;;;;;;;;;;;4992390;28;20057;-73
2022/09/13 05:56:34;;;;;;;26.88;12.85;;;;;;;;;;4991889;28;19926;-72
2022/09/13 05:59:00;;;;;;;;;;;;;;;;;;5008529;28;20058;-72
2022/09/13 06:01:27;;;;;;;25.92;12.25;;;;;;;;;;4987337;28;19929;-72
2022/09/13 06:03:55;;;;;;;26.48;11.90;;;;;;;;;;4991722;28;20043;-72
2022/09/13 06:06:21;;;;;;;24.88;11.95;;;;;;;;;;4981135;28;20061;-73
2022/09/13 06:08:47;;;;;;;23.90;11.70;;;;;;;;;;4971834;28;20404;-72
2022/09/13 06:11:13;;;;;;;;;;;;;;;;;;4973382;28;20627;-74
2022/09/13 06:13:40;;;;;;;23.27;11.70;;;;;;;;;;4981864;28;19925;-74
2022/09/13 06:16:08;;;;;;;25.27;11.00;;;;;;;;;;4992258;28;20507;-72
2022/09/13 06:18:34;;;;;;;26.45;12.25;;;;;;;;;;4993193;28;20134;-72
2022/09/13 06:21:03;;;;;;;24.88;11.68;;;;;;;;;;4991252;28;20058;-72
2022/09/13 06:23:29;;;;;;;23.65;12.32;;;;;;;;;;4989622;28;20135;-74
2022/09/13 06:25:59;;;;;;;24.90;11.60;;;;;;;;;;4972669;28;20065;-73
2022/09/13 06:28:25;;;;;;;24.70;11.27;;;;;;;;;;4974542;28;20285;-74
2022/09/13 06:30:51;;;;;;;;;;;;;;;;;;4976063;28;20055;-75
2022/09/13 06:33:17;;;;;;;20.95;10.30;;;;;;;;;;4992196;28;19928;-75
2022/09/13 06:35:43;;;;;;;;;;;;;;;;;;4992236;28;20149;-75
2022/09/13 06:38:09;;;;;;;18.90;9.20;;;;;;;;;;4990482;28;19957;-74
2022/09/13 06:40:35;;;;;;;;;;;;;;;;;;4992538;28;20129;-74
2022/09/13 06:43:01;;;;;;;21.08;9.05;;;;;;;;;;4992022;28;20414;-75
2022/09/13 06:45:28;;;;;;;;;;;;;;;;;;4992164;28;20372;-75
2022/09/13 06:47:54;;;;;;;14.57;7.20;;;;;;;;;;4992226;28;20051;-75
2022/09/13 06:50:21;;;;;;;17.90;8.15;;;;;;;;;;4992034;28;20056;-73
2022/09/13 06:52:47;;;;;;;;;;;;;;;;;;4990018;28;20073;-79
2022/09/13 06:55:13;;;;;;;18.05;8.07;;;;;;;;;;4977741;28;19926;-77
2022/09/13 06:57:39;;;;;;;;;;;;;;;;;;4984491;28;20104;-81
2022/09/13 07:00:05;;;;;;;13.73;6.80;;;;;;;;;;4991790;28;19930;-74
2022/09/13 07:02:32;;;;;;;13.60;6.88;;;;;;;;;;4990105;28;20499;-74
2022/09/13 07:04:57;;;;;;;;;;;;;;;;;;4990966;28;20050;-74
2022/09/13 07:07:24;;;;;;;11.50;5.90;;;;;;;;;;4989928;28;19928;-74
2022/09/13 07:09:50;;;;;;;12.48;4.93;;;;;;;;;;4991688;28;20089;-74
2022/09/13 07:12:16;;;;;;;;;;;;;;;;;;4990587;28;20054;-74
2022/09/13 07:14:42;;;;;;;9.00;3.67;;;;;;;;;;4991235;28;19921;-74
2022/09/13 07:17:07;;;;;;;;;;;;;;;;;;4991648;28;20141;-74
2022/09/13 07:19:34;;;;;;;11.20;3.33;;;;;;;;;;4991872;28;20016;-73
2022/09/13 07:21:59;;;;;;;;;;;;;;;;;;4989083;28;20046;-74
2022/09/13 07:24:26;;;;;;;6.78;2.55;;;;;;;;;;4991923;28;20389;-75
2022/09/13 07:26:52;;;;;;;6.88;2.20;;;;;;;;;;4991869;28;20046;-77
2022/09/13 07:29:21;;;;;;;6.70;2.70;;;;;;;;;;4983946;28;20561;-77
2022/09/13 07:31:48;;;;;;;8.13;2.67;;;;;;;;;;4975258;28;20045;-77
2022/09/13 07:34:19;;;;;;;3.60;2.13;;;;;;;;;;4985788;28;20112;-78
2022/09/13 07:36:45;;;;;;;4.28;2.13;;;;;;;;;;4969440;28;20396;-77
2022/09/13 07:39:12;;;;;;;4.68;2.05;;;;;;;;;;4978308;28;20372;-77
2022/09/13 07:41:38;;;;;;;3.88;2.25;;;;;;;;;;4982348;28;20614;-77
2022/09/13 07:44:06;;;;;;;5.18;2.03;;;;;;;;;;4984060;28;20054;-77
2022/09/13 07:46:35;;;;;;;4.13;1.60;;;;;;;;;;4980718;28;20058;-77
2022/09/13 07:49:01;;;;;;;5.07;2.03;;;;;;;;;;4984552;28;20046;-77
2022/09/13 07:51:29;;;;;;;4.85;1.65;;;;;;;;;;4978217;28;20047;-76
2022/09/13 07:53:56;;;;;;;6.65;2.20;;;;;;;;;;4982194;28;20125;-77
2022/09/13 07:56:23;;;;;;;3.60;2.00;;;;;;;;;;4975305;28;20342;-74
2022/09/13 07:58:50;;;;;;;4.65;1.90;;;;;;;;;;4983039;28;20053;-77
2022/09/13 08:01:20;;;;;;;4.55;1.85;;;;;;;;;;4975320;28;20046;-77
2022/09/13 08:04:07;;;;;;;5.35;1.70;;;;;;;;;;4976749;28;20457;-73
2022/09/13 08:06:34;;;;;;;3.92;1.60;;;;;;;;;;4976535;28;20447;-73
2022/09/13 08:09:00;;;;;;;9.75;2.15;;;;;;;;;;4985677;28;20039;-76
2022/09/13 08:11:26;;;;;;;;;;;;;;;;;;4985795;28;20121;-76
2022/09/13 08:13:52;;;;;;;5.38;1.60;;;;;;;;;;4987296;28;20045;-76
2022/09/13 08:16:19;;;;;;;4.53;1.42;;;;;;;;;;4984813;28;20121;-76
2022/09/13 08:18:46;;;;;;;4.30;1.10;;;;;;;;;;4988105;28;20058;-76
2022/09/13 08:21:13;;;;;;;5.75;1.40;;;;;;;;;;4988840;28;20546;-76
2022/09/13 08:23:39;;;;;;;3.35;1.58;;;;;;;;;;4990307;28;20077;-76
2022/09/13 08:26:06;;;;;;;;;;;;;;;;;;4989969;28;20129;-76
2022/09/13 08:28:33;;;;;;;4.40;1.40;;;;;;;;;;4989620;28;20391;-76
2022/09/13 08:31:16;;;;;;;2.75;1.40;;;;;;;;;;5005746;28;20081;-76
2022/09/13 08:33:47;;;;;;;4.25;1.40;;;;;;;;;;4990601;28;20105;-76
2022/09/13 08:36:14;;;;;;;7.15;1.30;;;;;;;;;;4988995;28;20057;-76
2022/09/13 08:38:44;;;;;;;5.68;1.25;;;;;;;;;;4990282;28;20053;-76
2022/09/13 08:41:19;;;;;;;2.72;1.25;;;;;;;;;;4984778;28;20516;-77
2022/09/13 08:43:50;;;;;;;5.10;1.30;;;;;;;;;;4980754;28;20054;-72
2022/09/13 08:46:27;;;;;;;3.42;0.98;;;;;;;;;;4978731;28;20054;-71
2022/09/13 08:48:55;;;;;;;4.57;1.80;;;;;;;;;;4981913;28;20053;-74
2022/09/13 08:51:24;;;;;;;4.22;1.05;;;;;;;;;;4980427;28;20108;-73
2022/09/13 08:53:51;;;;;;;7.03;1.45;;;;;;;;;;4985944;28;20546;-73
2022/09/13 08:56:23;;;;;;;1.80;0.95;;;;;;;;;;4984197;28;20611;-73
2022/09/13 08:58:55;;;;;;;4.95;1.15;;;;;;;;;;4989661;28;20222;-76
2022/09/13 09:01:31;;;;;;;5.05;1.42;;;;;;;;;;4987365;28;20093;-77
2022/09/13 09:03:57;;;;;;;2.42;1.33;;;;;;;;;;4981938;28;20052;-77
2022/09/13 09:06:23;;;;;;;;;;;;;;;;;;4979058;28;20133;-76
2022/09/13 09:08:52;;;;;;;3.08;1.10;;;;;;;;;;4985085;28;20012;-76
2022/09/13 09:11:31;;;;;;;5.95;1.10;;;;;;;;;;4985056;28;20050;-76
2022/09/13 09:14:01;;;;;;;7.75;1.45;;;;;;;;;;4984772;28;20051;-77
2022/09/13 09:16:53;;;;;;;3.95;1.10;;;;;;;;;;4982541;28;20082;-77
2022/09/13 09:19:26;;;;;;;9.85;1.17;;;;;;;;;;4986056;28;20110;-77
2022/09/13 09:21:52;;;;;;;3.28;0.85;;;;;;;;;;4984152;28;20752;-77
2022/09/13 09:24:20;;;;;;;4.82;1.00;;;;;;;;;;4986428;28;20061;-77
2022/09/13 09:26:46;;;;;;;3.25;1.08;;;;;;;;;;4979403;28;20093;-77
2022/09/13 09:29:18;;;;;;;6.38;1.45;;;;;;;;;;4988224;28;20129;-67
2022/09/13 09:32:03;;;;;;;4.72;1.00;;;;;;;;;;4991275;28;20050;-66
2022/09/13 09:34:44;;;;;;;5.53;1.15;;;;;;;;;;4983761;28;20146;-64
2022/09/13 09:37:23;;;;;;;3.60;0.85;;;;;;;;;;4980035;28;20050;-64
2022/09/13 09:39:49;;;;;;;3.97;1.02;;;;;;;;;;4980490;28;20569;-66
2022/09/13 09:42:20;;;;;;;3.25;1.00;;;;;;;;;;4989243;28;20046;-65
2022/09/13 09:44:48;;;;;;;1.55;0.60;;;;;;;;;;4990523;28;20050;-65
2022/09/13 09:47:16;;;;;;;0.68;0.65;;;;;;;;;;4985584;28;20073;-68
2022/09/13 09:52:38;;;;;;;2.20;0.75;;;;;;;;;;4983282;28;20086;-69
2022/09/13 09:55:27;;;;;;;4.43;0.88;;;;;;;;;;4984537;28;20051;-68
2022/09/13 09:58:05;;;;;;;4.45;1.00;;;;;;;;;;4977266;28;20142;-71
2022/09/13 10:00:32;;;;;;;2.28;0.70;;;;;;;;;;4983544;28;20066;-68
2022/09/13 10:03:00;;;;;;;4.85;1.10;;;;;;;;;;4984011;28;20487;-68
2022/09/13 10:05:26;;;;;;;0.90;0.75;;;;;;;;;;4984157;28;20120;-68
2022/09/13 10:07:54;;;;;;;3.38;0.85;;;;;;;;;;4986258;28;20042;-70
2022/09/13 10:10:25;;;;;;;2.30;0.70;;;;;;;;;;4990113;28;20502;-70
2022/09/13 10:12:55;;;;;;;2.38;0.70;;;;;;;;;;4977783;28;20046;-70
2022/09/13 10:15:26;;;;;;;6.57;1.45;;;;;;;;;;4971561;28;20050;-69
2022/09/13 10:18:06;;;;;;;3.05;0.70;;;;;;;;;;4975001;28;20074;-70
2022/09/13 10:20:33;;;;;;;1.02;0.73;;;;;;;;;;4978925;28;20054;-71
2022/09/13 10:23:16;;;;;;;3.10;0.90;;;;;;;;;;4970079;28;20491;-70
2022/09/13 10:25:44;;;;;;;3.75;0.75;;;;;;;;;;4972070;28;20054;-70
2022/09/13 10:28:12;;;;;;;2.78;0.85;;;;;;;;;;4971608;28;20039;-70
2022/09/13 10:30:45;;;;;;;3.58;0.90;;;;;;;;;;4976947;28;20531;-70
2022/09/13 10:33:23;;;;;;;2.08;0.57;;;;;;;;;;4973416;28;20053;-72
2022/09/13 10:35:52;;;;;;;2.67;0.90;;;;;;;;;;4982200;28;20169;-70
2022/09/13 10:38:27;;;;;;;2.63;0.55;;;;;;;;;;4977370;28;20054;-69
2022/09/13 10:40:54;;;;;;;1.60;0.65;;;;;;;;;;4982215;28;20500;-68
2022/09/13 10:43:21;;;;;;;2.67;0.65;;;;;;;;;;4983625;28;20053;-70
2022/09/13 10:45:51;;;;;;;1.02;0.85;;;;;;;;;;4990970;28;20167;-77
2022/09/13 10:48:18;;;;;;;4.57;0.70;;;;;;;;;;4978926;28;20050;-69
2022/09/13 10:51:05;;;;;;;1.00;0.52;;;;;;;;;;4986730;28;20054;-70
2022/09/13 10:53:33;;;;;;;5.20;1.27;;;;;;;;;;4982160;28;20419;-70
2022/09/13 10:56:01;;;;;;;0.95;0.60;;;;;;;;;;4982736;28;20121;-69
2022/09/13 10:58:27;;;;;;;2.25;0.70;;;;;;;;;;4983065;28;20060;-70
2022/09/13 11:01:13;;;;;;;2.03;0.70;;;;;;;;;;4982381;28;20173;-77
2022/09/13 11:03:41;;;;;;;0.77;0.40;;;;;;;;;;4979496;28;20051;-72
2022/09/13 11:06:14;;;;;;;3.00;0.88;;;;;;;;;;4974430;28;20551;-75
2022/09/13 11:08:43;;;;;;;3.45;0.70;;;;;;;;;;4977736;28;20078;-70
2022/09/13 11:11:32;;;;;;;4.03;0.75;;;;;;;;;;4980872;28;20050;-72
2022/09/13 11:14:13;;;;;;;4.25;1.00;;;;;;;;;;4987355;28;20047;-71
2022/09/13 11:16:42;;;;;;;1.40;0.65;;;;;;;;;;4983305;28;20125;-71
2022/09/13 11:19:14;;;;;;;0.90;0.40;;;;;;;;;;4975580;28;20038;-79
2022/09/13 11:22:00;;;;;;;2.05;0.68;;;;;;;;;;4972257;28;20061;-71
2022/09/13 11:24:29;;;;;;;1.45;0.50;;;;;;;;;;4942263;28;20133;-75
2022/09/13 11:26:55;;;;;;;0.82;0.40;;;;;;;;;;4984552;28;20120;-73
2022/09/13 11:29:34;;;;;;;3.65;0.70;;;;;;;;;;4985727;28;20491;-75
2022/09/13 11:32:00;;;;;;;6.50;0.90;;;;;;;;;;4984560;28;20134;-75
2022/09/13 11:34:48;;;;;;;8.70;1.23;;;;;;;;;;4983644;28;20113;-75
2022/09/13 11:37:14;;;;;;;2.08;0.60;;;;;;;;;;4985230;28;20054;-73
2022/09/13 11:39:52;;;;;;;3.95;0.75;;;;;;;;;;4988880;28;20054;-74
2022/09/13 11:42:30;;;;;;;3.30;0.60;;;;;;;;;;4987543;28;20049;-74
2022/09/13 11:45:09;;;;;;;4.28;0.70;;;;;;;;;;4972048;28;20061;-72
2022/09/13 11:47:53;;;;;;;1.50;0.57;;;;;;;;;;4975404;28;20150;-72
2022/09/13 11:50:32;;;;;;;5.45;0.77;;;;;;;;;;4989824;28;20054;-72
2022/09/13 11:53:04;;;;;;;4.55;0.73;;;;;;;;;;4987441;28;20093;-73
2022/09/13 11:55:30;;;;;;;2.00;0.38;;;;;;;;;;4983149;28;20116;-74
2022/09/13 11:57:58;;;;;;;2.47;0.80;;;;;;;;;;4991290;28;20046;-73
2022/09/13 12:00:24;;;;;;;2.10;0.50;;;;;;;;;;4990802;28;20484;-72
2022/09/13 12:03:09;;;;;;;1.58;0.68;;;;;;;;;;4989882;28;20613;-75
2022/09/13 12:05:42;;;;;;;2.78;0.73;;;;;;;;;;4990452;28;20049;-75
2022/09/13 12:08:30;;;;;;;3.92;0.50;;;;;;;;;;4988955;28;20488;-75
2022/09/13 12:10:58;;;;;;;0.60;0.40;;;;;;;;;;4981328;28;20089;-75
2022/09/13 12:13:28;;;;;;;2.78;0.70;;;;;;;;;;4990570;28;20404;-75
2022/09/13 12:16:02;;;;;;;1.83;0.38;;;;;;;;;;4990210;28;20073;-75
2022/09/13 12:18:31;;;;;;;1.25;0.30;;;;;;;;;;4990845;28;20055;-74
2022/09/13 12:21:03;;;;;;;2.55;0.88;;;;;;;;;;4988904;28;20050;-75
2022/09/13 12:23:52;;;;;;;1.55;0.40;;;;;;;;;;4990057;28;20050;-75
2022/09/13 12:26:41;;;;;;;2.85;0.52;;;;;;;;;;4982587;28;20070;-75
2022/09/13 12:29:15;;;;;;;3.63;0.60;;;;;;;;;;4982896;28;20706;-74
2022/09/13 12:31:41;;;;;;;3.13;0.70;;;;;;;;;;4990151;28;20050;-74
2022/09/13 12:34:09;;;;;;;3.55;0.47;;;;;;;;;;4981876;28;20062;-74
2022/09/13 12:36:42;;;;;;;5.07;0.60;;;;;;;;;;4975973;28;20113;-75
2022/09/13 12:39:11;;;;;;;2.05;0.50;;;;;;;;;;4993758;28;20185;-75
2022/09/13 12:41:40;;;;;;;3.78;0.43;;;;;;;;;;4994289;28;20050;-75
2022/09/13 12:44:15;;;;;;;4.15;0.80;;;;;;;;;;4993865;28;20146;-76
2022/09/13 12:46:42;;;;;;;;;;;;;;;;;;4982077;28;20185;-75
2022/09/13 12:49:11;;;;;;;2.65;0.45;;;;;;;;;;4986424;28;19921;-74
2022/09/13 12:51:43;;;;;;;2.17;0.70;;;;;;;;;;4991929;28;20085;-75
2022/09/13 12:54:18;;;;;;;0.80;0.40;;;;;;;;;;4994460;28;20046;-75
2022/09/13 12:56:47;;;;;;;1.23;0.52;;;;;;;;;;4993901;28;20451;-74
2022/09/13 12:59:28;;;;;;;1.02;0.30;;;;;;;;;;4986602;28;20089;-74
2022/09/13 13:01:56;;;;;;;4.97;0.52;;;;;;;;;;4978405;28;20242;-74
2022/09/13 13:04:25;;;;;;;3.13;0.50;;;;;;;;;;4982771;28;20134;-74
2022/09/13 13:06:51;;;;;;;3.03;0.50;;;;;;;;;;4985333;28;20072;-74
2022/09/13 13:09:29;;;;;;;1.65;0.45;;;;;;;;;;4992802;28;20559;-74
2022/09/13 13:11:57;;;;;;;0.80;0.35;;;;;;;;;;4993381;28;20117;-74
2022/09/13 13:14:42;;;;;;;2.55;0.65;;;;;;;;;;4994261;28;20081;-74
2022/09/13 13:17:27;;;;;;;5.32;0.77;;;;;;;;;;4993582;28;20112;-74
2022/09/13 13:19:55;;;;;;;3.23;0.67;;;;;;;;;;4989981;28;20049;-74
2022/09/13 13:22:40;;;;;;;3.35;0.70;;;;;;;;;;4985162;28;20298;-74
2022/09/13 13:25:29;;;;;;;2.95;0.60;;;;;;;;;;4977001;28;20063;-75
2022/09/13 13:27:56;;;;;;;3.08;0.85;;;;;;;;;;4981506;28;20038;-75
2022/09/13 13:30:40;;;;;;;2.58;0.50;;;;;;;;;;4977016;28;20042;-74
2022/09/13 13:33:12;;;;;;;2.72;0.80;;;;;;;;;;4974429;28;20132;-74
2022/09/13 13:35:39;;;;;;;3.88;0.77;;;;;;;;;;4993115;28;20062;-75
2022/09/13 13:38:32;;;;;;;2.63;0.50;;;;;;;;;;4989280;28;20077;-74
2022/09/13 13:41:07;;;;;;;4.78;0.60;;;;;;;;;;4982581;28;20122;-74
2022/09/13 13:43:34;;;;;;;1.88;0.40;;;;;;;;;;4993557;28;20054;-73
2022/09/13 13:46:12;;;;;;;4.53;0.75;;;;;;;;;;4982821;28;20054;-73
2022/09/13 13:48:40;;;;;;;2.85;0.50;;;;;;;;;;4984174;28;20047;-73
2022/09/13 13:51:14;;;;;;;2.25;0.40;;;;;;;;;;4981560;28;20081;-73
2022/09/13 13:53:42;;;;;;;4.80;0.80;;;;;;;;;;4986589;28;20066;-74
2022/09/13 13:56:23;;;;;;;2.80;0.90;;;;;;;;;;4984904;28;20054;-75
2022/09/13 13:59:16;;;;;;;2.60;0.50;;;;;;;;;;4990932;28;20117;-73
2022/09/13 14:01:46;;;;;;;5.57;0.63;;;;;;;;;;4985232;28;20065;-74
2022/09/13 14:04:18;;;;;;;4.43;0.60;;;;;;;;;;4980071;28;20050;-74
2022/09/13 14:06:44;;;;;;;2.92;0.50;;;;;;;;;;4975243;28;20051;-74
2022/09/13 14:09:33;;;;;;;2.65;0.57;;;;;;;;;;4987485;28;20583;-74
2022/09/13 14:12:18;;;;;;;3.15;0.77;;;;;;;;;;4982547;28;20086;-74
2022/09/13 14:14:47;;;;;;;2.42;0.70;;;;;;;;;;4985435;28;20121;-74
2022/09/13 14:17:19;;;;;;;1.95;0.40;;;;;;;;;;4987846;28;20042;-73
2022/09/13 14:19:49;;;;;;;3.72;0.68;;;;;;;;;;4986842;28;20058;-74
2022/09/13 14:22:15;;;;;;;1.52;0.50;;;;;;;;;;4971946;28;20145;-75
2022/09/13 14:24:47;;;;;;;4.22;0.75;;;;;;;;;;4971686;28;20062;-74
2022/09/13 14:27:15;;;;;;;3.58;0.80;;;;;;;;;;4974283;28;20082;-75
2022/09/13 14:29:44;;;;;;;3.40;0.57;;;;;;;;;;4976083;28;20057;-74
2022/09/13 14:32:13;;;;;;;3.65;0.70;;;;;;;;;;4986142;28;20042;-75
2022/09/13 14:34:39;;;;;;;1.55;0.70;;;;;;;;;;4977758;28;20058;-74
2022/09/13 14:37:06;;;;;;;4.97;0.73;;;;;;;;;;4986244;28;20057;-76
2022/09/13 14:39:32;;;;;;;2.80;0.60;;;;;;;;;;4972870;28;20039;-73
2022/09/13 14:42:07;;;;;;;1.65;0.38;;;;;;;;;;4979781;28;20050;-75
2022/09/13 14:44:33;;;;;;;5.10;0.82;;;;;;;;;;4978863;28;20185;-75
2022/09/13 14:47:02;;;;;;;4.07;0.82;;;;;;;;;;4980280;28;20525;-75
2022/09/13 14:49:32;;;;;;;4.13;0.95;;;;;;;;;;4986257;28;20556;-75
2022/09/13 14:52:17;;;;;;;4.45;0.82;;;;;;;;;;4985343;28;20418;-76
2022/09/13 14:54:47;;;;;;;5.05;0.95;;;;;;;;;;4986174;28;20100;-73
2022/09/13 14:57:33;;;;;;;3.15;0.60;;;;;;;;;;4985976;28;20054;-71
2022/09/13 15:00:02;;;;;;;3.78;1.00;;;;;;;;;;4990042;28;20046;-72
2022/09/13 15:02:32;;;;;;;3.63;0.50;;;;;;;;;;4990402;28;20058;-76
2022/09/13 15:04:59;;;;;;;5.05;0.63;;;;;;;;;;4991024;28;20054;-77
2022/09/13 15:07:31;;;;;;;2.30;0.55;;;;;;;;;;4989965;28;20054;-78
2022/09/13 15:10:17;;;;;;;3.05;0.63;;;;;;;;;;4976811;28;20144;-72
2022/09/13 15:12:52;;;;;;;3.92;0.80;;;;;;;;;;4981021;28;20447;-73